Terminal Aerodrome Forecast
Issued by NWS

Current Version | Previous Version | Graphics & Text | Print | Product List | Glossary On
Versions: 1 2 3 4 5 6 7 8 9 10 11 12 13 14 15 16 17 18 19 20 21
492
FTUS41 KILN 161132
TAFLUK
TAF
KLUK 161132Z 1612/1712 32010G18KT P6SM BKN023 OVC028
     FM161500 30008KT P6SM BKN025
      TEMPO 1615/1617 SCT025
     FM170100 36003KT P6SM SCT025 SCT250
     FM170300 VRB02KT P6SM SCT250=

USA.gov is the U.S. government's official web portal to all federal, state and local government web resources and services.